sensor_id;sensor_type;location;lat;lon;timestamp;P1;durP1;ratioP1;P2;durP2;ratioP2
323;SDS011;149;51.094;17.002;2023-03-03T00:00:10;79.88;;;40.50;;
323;SDS011;149;51.094;17.002;2023-03-03T00:02:38;80.85;;;39.65;;
323;SDS011;149;51.094;17.002;2023-03-03T00:05:05;92.38;;;41.38;;
323;SDS011;149;51.094;17.002;2023-03-03T00:07:32;93.88;;;44.17;;
323;SDS011;149;51.094;17.002;2023-03-03T00:10:08;97.05;;;43.70;;
323;SDS011;149;51.094;17.002;2023-03-03T00:12:37;162.10;;;48.97;;
323;SDS011;149;51.094;17.002;2023-03-03T00:15:15;118.93;;;48.25;;
323;SDS011;149;51.094;17.002;2023-03-03T00:17:45;105.75;;;44.17;;
323;SDS011;149;51.094;17.002;2023-03-03T00:20:46;108.18;;;40.78;;
323;SDS011;149;51.094;17.002;2023-03-03T00:28:47;125.20;;;47.08;;
323;SDS011;149;51.094;17.002;2023-03-03T00:31:28;121.60;;;46.53;;
323;SDS011;149;51.094;17.002;2023-03-03T00:34:42;115.95;;;50.97;;
323;SDS011;149;51.094;17.002;2023-03-03T00:36:53;143.30;;;46.42;;
323;SDS011;149;51.094;17.002;2023-03-03T00:39:37;111.10;;;46.00;;
323;SDS011;149;51.094;17.002;2023-03-03T00:42:14;105.75;;;44.42;;
323;SDS011;149;51.094;17.002;2023-03-03T00:44:55;129.10;;;47.45;;
323;SDS011;149;51.094;17.002;2023-03-03T00:52:37;106.68;;;44.60;;
323;SDS011;149;51.094;17.002;2023-03-03T00:55:06;104.75;;;45.95;;
323;SDS011;149;51.094;17.002;2023-03-03T00:57:34;108.03;;;44.10;;
323;SDS011;149;51.094;17.002;2023-03-03T01:00:01;113.65;;;43.95;;
323;SDS011;149;51.094;17.002;2023-03-03T01:02:28;100.38;;;42.92;;
323;SDS011;149;51.094;17.002;2023-03-03T01:04:56;91.68;;;44.85;;
323;SDS011;149;51.094;17.002;2023-03-03T01:07:23;86.38;;;40.40;;
323;SDS011;149;51.094;17.002;2023-03-03T01:09:50;86.28;;;44.00;;
323;SDS011;149;51.094;17.002;2023-03-03T01:12:18;95.45;;;42.03;;
323;SDS011;149;51.094;17.002;2023-03-03T01:14:44;83.47;;;38.80;;
323;SDS011;149;51.094;17.002;2023-03-03T01:17:14;97.00;;;40.15;;
323;SDS011;149;51.094;17.002;2023-03-03T01:19:41;89.13;;;40.83;;
323;SDS011;149;51.094;17.002;2023-03-03T01:22:08;86.88;;;40.20;;
323;SDS011;149;51.094;17.002;2023-03-03T01:24:35;94.05;;;38.20;;
323;SDS011;149;51.094;17.002;2023-03-03T01:27:02;87.90;;;38.47;;
323;SDS011;149;51.094;17.002;2023-03-03T01:29:29;95.93;;;39.85;;
323;SDS011;149;51.094;17.002;2023-03-03T01:31:55;77.47;;;36.38;;
323;SDS011;149;51.094;17.002;2023-03-03T01:34:23;78.10;;;37.42;;
323;SDS011;149;51.094;17.002;2023-03-03T01:36:50;68.93;;;35.40;;
323;SDS011;149;51.094;17.002;2023-03-03T01:39:17;81.07;;;36.85;;
323;SDS011;149;51.094;17.002;2023-03-03T01:41:44;65.80;;;34.60;;
323;SDS011;149;51.094;17.002;2023-03-03T01:44:13;71.32;;;34.45;;
323;SDS011;149;51.094;17.002;2023-03-03T01:49:26;63.92;;;32.78;;
323;SDS011;149;51.094;17.002;2023-03-03T01:52:00;81.13;;;39.58;;
323;SDS011;149;51.094;17.002;2023-03-03T01:54:29;82.55;;;42.50;;
323;SDS011;149;51.094;17.002;2023-03-03T01:57:04;74.97;;;35.53;;
323;SDS011;149;51.094;17.002;2023-03-03T01:59:35;66.20;;;35.47;;
323;SDS011;149;51.094;17.002;2023-03-03T02:02:05;66.57;;;32.50;;
323;SDS011;149;51.094;17.002;2023-03-03T02:04:33;67.70;;;34.63;;
323;SDS011;149;51.094;17.002;2023-03-03T02:07:02;61.50;;;33.35;;
323;SDS011;149;51.094;17.002;2023-03-03T02:12:15;79.18;;;35.05;;
323;SDS011;149;51.094;17.002;2023-03-03T02:14:44;78.72;;;37.78;;
323;SDS011;149;51.094;17.002;2023-03-03T02:17:11;82.47;;;35.08;;
323;SDS011;149;51.094;17.002;2023-03-03T02:22:08;75.20;;;35.90;;
323;SDS011;149;51.094;17.002;2023-03-03T02:24:44;89.03;;;38.70;;
323;SDS011;149;51.094;17.002;2023-03-03T02:27:16;75.75;;;34.33;;
323;SDS011;149;51.094;17.002;2023-03-03T02:29:43;70.40;;;35.72;;
323;SDS011;149;51.094;17.002;2023-03-03T02:32:10;81.15;;;38.00;;
323;SDS011;149;51.094;17.002;2023-03-03T02:34:47;68.20;;;34.10;;
323;SDS011;149;51.094;17.002;2023-03-03T02:37:15;78.53;;;35.95;;
323;SDS011;149;51.094;17.002;2023-03-03T02:39:44;79.75;;;33.03;;
323;SDS011;149;51.094;17.002;2023-03-03T02:42:19;74.05;;;36.35;;
323;SDS011;149;51.094;17.002;2023-03-03T02:44:51;76.88;;;37.55;;
323;SDS011;149;51.094;17.002;2023-03-03T02:47:17;85.38;;;36.72;;
323;SDS011;149;51.094;17.002;2023-03-03T02:49:44;84.65;;;36.35;;
323;SDS011;149;51.094;17.002;2023-03-03T02:52:11;80.68;;;38.05;;
323;SDS011;149;51.094;17.002;2023-03-03T02:54:40;84.13;;;38.42;;
323;SDS011;149;51.094;17.002;2023-03-03T02:57:06;84.05;;;36.78;;
323;SDS011;149;51.094;17.002;2023-03-03T02:59:34;80.75;;;34.97;;
323;SDS011;149;51.094;17.002;2023-03-03T03:02:01;74.60;;;37.45;;
323;SDS011;149;51.094;17.002;2023-03-03T03:04:28;112.78;;;39.45;;
323;SDS011;149;51.094;17.002;2023-03-03T03:06:55;90.38;;;40.53;;
323;SDS011;149;51.094;17.002;2023-03-03T03:09:23;96.78;;;39.92;;
323;SDS011;149;51.094;17.002;2023-03-03T03:11:51;74.97;;;35.17;;
323;SDS011;149;51.094;17.002;2023-03-03T03:14:17;95.78;;;41.38;;
323;SDS011;149;51.094;17.002;2023-03-03T03:16:45;88.53;;;42.25;;
323;SDS011;149;51.094;17.002;2023-03-03T03:19:12;98.25;;;39.95;;
323;SDS011;149;51.094;17.002;2023-03-03T03:21:39;87.95;;;37.60;;
323;SDS011;149;51.094;17.002;2023-03-03T03:24:06;74.75;;;37.13;;
323;SDS011;149;51.094;17.002;2023-03-03T03:26:33;97.97;;;40.60;;
323;SDS011;149;51.094;17.002;2023-03-03T03:29:00;89.20;;;39.42;;
323;SDS011;149;51.094;17.002;2023-03-03T03:31:27;86.78;;;38.20;;
323;SDS011;149;51.094;17.002;2023-03-03T03:33:54;78.68;;;35.17;;
323;SDS011;149;51.094;17.002;2023-03-03T03:36:21;71.53;;;34.20;;
323;SDS011;149;51.094;17.002;2023-03-03T03:38:48;80.40;;;38.78;;
323;SDS011;149;51.094;17.002;2023-03-03T03:41:15;79.78;;;35.38;;
323;SDS011;149;51.094;17.002;2023-03-03T03:43:42;90.82;;;38.05;;
323;SDS011;149;51.094;17.002;2023-03-03T03:46:09;74.15;;;36.17;;
323;SDS011;149;51.094;17.002;2023-03-03T03:48:36;73.90;;;36.50;;
323;SDS011;149;51.094;17.002;2023-03-03T03:51:03;87.32;;;33.80;;
323;SDS011;149;51.094;17.002;2023-03-03T03:53:30;76.68;;;33.35;;
323;SDS011;149;51.094;17.002;2023-03-03T03:55:57;84.18;;;35.97;;
323;SDS011;149;51.094;17.002;2023-03-03T03:58:24;91.30;;;40.67;;
323;SDS011;149;51.094;17.002;2023-03-03T04:00:51;84.43;;;37.72;;
323;SDS011;149;51.094;17.002;2023-03-03T04:03:18;73.20;;;34.75;;
323;SDS011;149;51.094;17.002;2023-03-03T04:05:45;79.00;;;36.90;;
323;SDS011;149;51.094;17.002;2023-03-03T04:08:12;92.10;;;42.05;;
323;SDS011;149;51.094;17.002;2023-03-03T04:10:39;90.00;;;38.50;;
323;SDS011;149;51.094;17.002;2023-03-03T04:13:06;93.72;;;39.55;;
323;SDS011;149;51.094;17.002;2023-03-03T04:15:33;89.80;;;40.05;;
323;SDS011;149;51.094;17.002;2023-03-03T04:18:00;77.20;;;39.05;;
323;SDS011;149;51.094;17.002;2023-03-03T04:20:27;74.28;;;36.83;;
323;SDS011;149;51.094;17.002;2023-03-03T04:22:54;64.75;;;34.70;;
323;SDS011;149;51.094;17.002;2023-03-03T04:25:22;64.85;;;33.30;;
323;SDS011;149;51.094;17.002;2023-03-03T04:27:49;68.63;;;32.10;;
323;SDS011;149;51.094;17.002;2023-03-03T04:30:18;79.32;;;35.25;;
323;SDS011;149;51.094;17.002;2023-03-03T04:32:44;59.45;;;30.67;;
323;SDS011;149;51.094;17.002;2023-03-03T04:35:12;67.85;;;33.30;;
323;SDS011;149;51.094;17.002;2023-03-03T04:37:40;66.05;;;34.50;;
323;SDS011;149;51.094;17.002;2023-03-03T04:40:07;69.22;;;31.55;;
323;SDS011;149;51.094;17.002;2023-03-03T04:42:35;65.97;;;31.52;;
323;SDS011;149;51.094;17.002;2023-03-03T04:45:03;79.57;;;36.42;;
323;SDS011;149;51.094;17.002;2023-03-03T04:47:30;82.57;;;36.42;;
323;SDS011;149;51.094;17.002;2023-03-03T04:49:58;78.50;;;34.40;;
323;SDS011;149;51.094;17.002;2023-03-03T04:52:25;68.22;;;31.13;;
323;SDS011;149;51.094;17.002;2023-03-03T04:54:53;55.88;;;30.38;;
323;SDS011;149;51.094;17.002;2023-03-03T04:57:20;54.67;;;29.17;;
323;SDS011;149;51.094;17.002;2023-03-03T04:59:47;54.97;;;28.52;;
323;SDS011;149;51.094;17.002;2023-03-03T05:02:13;57.03;;;27.63;;
323;SDS011;149;51.094;17.002;2023-03-03T05:04:40;46.75;;;28.23;;
323;SDS011;149;51.094;17.002;2023-03-03T05:07:07;63.53;;;28.38;;
323;SDS011;149;51.094;17.002;2023-03-03T05:09:35;58.25;;;30.33;;
323;SDS011;149;51.094;17.002;2023-03-03T05:12:02;59.35;;;27.33;;
323;SDS011;149;51.094;17.002;2023-03-03T05:14:29;59.00;;;29.48;;
323;SDS011;149;51.094;17.002;2023-03-03T05:16:56;63.42;;;29.70;;
323;SDS011;149;51.094;17.002;2023-03-03T05:19:24;72.65;;;35.13;;
323;SDS011;149;51.094;17.002;2023-03-03T05:21:51;54.08;;;28.13;;
323;SDS011;149;51.094;17.002;2023-03-03T05:24:18;59.00;;;28.92;;
323;SDS011;149;51.094;17.002;2023-03-03T05:26:45;65.43;;;28.42;;
323;SDS011;149;51.094;17.002;2023-03-03T05:29:12;52.08;;;26.58;;
323;SDS011;149;51.094;17.002;2023-03-03T05:31:39;49.55;;;23.98;;
323;SDS011;149;51.094;17.002;2023-03-03T05:34:07;38.05;;;20.40;;
323;SDS011;149;51.094;17.002;2023-03-03T05:36:35;42.38;;;20.38;;
323;SDS011;149;51.094;17.002;2023-03-03T05:39:02;32.63;;;18.50;;
323;SDS011;149;51.094;17.002;2023-03-03T05:41:29;33.35;;;18.08;;
323;SDS011;149;51.094;17.002;2023-03-03T05:43:56;34.42;;;16.30;;
323;SDS011;149;51.094;17.002;2023-03-03T05:46:23;36.00;;;19.15;;
323;SDS011;149;51.094;17.002;2023-03-03T05:48:50;35.83;;;16.63;;
323;SDS011;149;51.094;17.002;2023-03-03T05:51:17;33.63;;;16.92;;
323;SDS011;149;51.094;17.002;2023-03-03T05:53:45;29.73;;;17.17;;
323;SDS011;149;51.094;17.002;2023-03-03T05:56:12;39.88;;;17.75;;
323;SDS011;149;51.094;17.002;2023-03-03T05:58:39;28.83;;;15.93;;
323;SDS011;149;51.094;17.002;2023-03-03T06:01:05;26.30;;;15.63;;
323;SDS011;149;51.094;17.002;2023-03-03T06:03:32;31.20;;;17.05;;
323;SDS011;149;51.094;17.002;2023-03-03T06:06:00;40.47;;;21.90;;
323;SDS011;149;51.094;17.002;2023-03-03T06:08:27;30.42;;;16.75;;
323;SDS011;149;51.094;17.002;2023-03-03T06:10:55;36.45;;;20.60;;
323;SDS011;149;51.094;17.002;2023-03-03T06:13:21;30.23;;;16.63;;
323;SDS011;149;51.094;17.002;2023-03-03T06:15:51;39.85;;;19.92;;
323;SDS011;149;51.094;17.002;2023-03-03T06:18:18;40.85;;;21.48;;
323;SDS011;149;51.094;17.002;2023-03-03T06:20:49;34.33;;;18.50;;
323;SDS011;149;51.094;17.002;2023-03-03T06:23:17;33.00;;;18.15;;
323;SDS011;149;51.094;17.002;2023-03-03T06:25:45;29.95;;;15.95;;
323;SDS011;149;51.094;17.002;2023-03-03T06:28:13;27.33;;;16.13;;
323;SDS011;149;51.094;17.002;2023-03-03T06:30:40;34.10;;;15.82;;
323;SDS011;149;51.094;17.002;2023-03-03T06:33:07;28.42;;;14.73;;
323;SDS011;149;51.094;17.002;2023-03-03T06:35:35;25.70;;;13.27;;
323;SDS011;149;51.094;17.002;2023-03-03T06:38:02;31.05;;;15.85;;
323;SDS011;149;51.094;17.002;2023-03-03T06:40:29;35.03;;;16.58;;
323;SDS011;149;51.094;17.002;2023-03-03T06:42:56;29.45;;;16.00;;
323;SDS011;149;51.094;17.002;2023-03-03T06:45:23;26.80;;;15.02;;
323;SDS011;149;51.094;17.002;2023-03-03T06:47:50;27.70;;;14.77;;
323;SDS011;149;51.094;17.002;2023-03-03T06:50:17;27.42;;;15.48;;
323;SDS011;149;51.094;17.002;2023-03-03T06:52:46;31.63;;;16.92;;
323;SDS011;149;51.094;17.002;2023-03-03T06:55:20;29.45;;;15.85;;
323;SDS011;149;51.094;17.002;2023-03-03T06:57:48;23.40;;;16.20;;
323;SDS011;149;51.094;17.002;2023-03-03T07:00:22;29.85;;;17.27;;
323;SDS011;149;51.094;17.002;2023-03-03T07:03:01;29.40;;;14.60;;
323;SDS011;149;51.094;17.002;2023-03-03T07:05:34;27.75;;;13.85;;
323;SDS011;149;51.094;17.002;2023-03-03T07:08:00;30.80;;;14.98;;
323;SDS011;149;51.094;17.002;2023-03-03T07:10:29;35.00;;;15.60;;
323;SDS011;149;51.094;17.002;2023-03-03T07:12:57;26.67;;;15.65;;
323;SDS011;149;51.094;17.002;2023-03-03T07:15:33;27.63;;;14.80;;
323;SDS011;149;51.094;17.002;2023-03-03T07:18:01;32.30;;;18.48;;
323;SDS011;149;51.094;17.002;2023-03-03T07:20:37;27.27;;;15.88;;
323;SDS011;149;51.094;17.002;2023-03-03T07:25:49;39.58;;;18.75;;
323;SDS011;149;51.094;17.002;2023-03-03T07:28:22;37.08;;;16.65;;
323;SDS011;149;51.094;17.002;2023-03-03T07:30:50;37.47;;;19.27;;
323;SDS011;149;51.094;17.002;2023-03-03T07:33:22;33.30;;;17.00;;
323;SDS011;149;51.094;17.002;2023-03-03T07:35:53;46.10;;;20.73;;
323;SDS011;149;51.094;17.002;2023-03-03T07:40:57;40.45;;;18.98;;
323;SDS011;149;51.094;17.002;2023-03-03T07:45:57;38.75;;;17.77;;
323;SDS011;149;51.094;17.002;2023-03-03T07:48:44;34.13;;;16.75;;
323;SDS011;149;51.094;17.002;2023-03-03T07:51:17;33.83;;;18.00;;
323;SDS011;149;51.094;17.002;2023-03-03T07:53:51;37.20;;;17.77;;
323;SDS011;149;51.094;17.002;2023-03-03T07:56:30;33.90;;;16.35;;
323;SDS011;149;51.094;17.002;2023-03-03T07:59:02;34.30;;;19.42;;
323;SDS011;149;51.094;17.002;2023-03-03T08:01:43;32.00;;;15.07;;
323;SDS011;149;51.094;17.002;2023-03-03T08:06:50;29.60;;;15.80;;
323;SDS011;149;51.094;17.002;2023-03-03T08:14:30;24.00;;;16.08;;
323;SDS011;149;51.094;17.002;2023-03-03T08:17:00;24.67;;;14.90;;
323;SDS011;149;51.094;17.002;2023-03-03T08:19:29;24.95;;;14.18;;
323;SDS011;149;51.094;17.002;2023-03-03T08:22:39;22.23;;;13.65;;
323;SDS011;149;51.094;17.002;2023-03-03T08:24:50;30.85;;;15.45;;
323;SDS011;149;51.094;17.002;2023-03-03T08:27:17;24.50;;;13.02;;
323;SDS011;149;51.094;17.002;2023-03-03T08:29:45;25.83;;;13.50;;
323;SDS011;149;51.094;17.002;2023-03-03T08:32:13;28.50;;;16.33;;
323;SDS011;149;51.094;17.002;2023-03-03T08:34:40;23.83;;;13.70;;
323;SDS011;149;51.094;17.002;2023-03-03T08:37:08;29.50;;;14.50;;
323;SDS011;149;51.094;17.002;2023-03-03T08:39:35;21.05;;;12.02;;
323;SDS011;149;51.094;17.002;2023-03-03T08:42:02;30.42;;;15.73;;
323;SDS011;149;51.094;17.002;2023-03-03T08:44:29;23.02;;;12.70;;
323;SDS011;149;51.094;17.002;2023-03-03T08:46:56;24.65;;;12.85;;
323;SDS011;149;51.094;17.002;2023-03-03T08:49:23;29.27;;;15.63;;
323;SDS011;149;51.094;17.002;2023-03-03T08:51:50;23.45;;;14.40;;
323;SDS011;149;51.094;17.002;2023-03-03T08:54:17;25.15;;;13.10;;
323;SDS011;149;51.094;17.002;2023-03-03T08:56:44;22.27;;;14.40;;
323;SDS011;149;51.094;17.002;2023-03-03T08:59:12;23.23;;;14.00;;
323;SDS011;149;51.094;17.002;2023-03-03T09:01:39;24.25;;;14.23;;
323;SDS011;149;51.094;17.002;2023-03-03T09:04:08;25.00;;;14.02;;
323;SDS011;149;51.094;17.002;2023-03-03T09:06:38;21.80;;;14.90;;
323;SDS011;149;51.094;17.002;2023-03-03T09:09:05;32.80;;;18.75;;
323;SDS011;149;51.094;17.002;2023-03-03T09:11:32;33.13;;;16.85;;
323;SDS011;149;51.094;17.002;2023-03-03T09:14:20;32.88;;;19.10;;
323;SDS011;149;51.094;17.002;2023-03-03T09:16:51;32.53;;;19.30;;
323;SDS011;149;51.094;17.002;2023-03-03T09:21:56;26.45;;;16.63;;
323;SDS011;149;51.094;17.002;2023-03-03T09:24:29;25.38;;;15.77;;
323;SDS011;149;51.094;17.002;2023-03-03T09:26:57;26.20;;;15.23;;
323;SDS011;149;51.094;17.002;2023-03-03T09:29:26;30.65;;;16.48;;
323;SDS011;149;51.094;17.002;2023-03-03T09:31:55;29.73;;;18.05;;
323;SDS011;149;51.094;17.002;2023-03-03T09:34:26;26.45;;;16.60;;
323;SDS011;149;51.094;17.002;2023-03-03T09:36:56;28.88;;;17.45;;
323;SDS011;149;51.094;17.002;2023-03-03T09:39:26;28.13;;;15.35;;
323;SDS011;149;51.094;17.002;2023-03-03T10:04:18;24.02;;;14.68;;
323;SDS011;149;51.094;17.002;2023-03-03T10:10:10;22.15;;;13.60;;
323;SDS011;149;51.094;17.002;2023-03-03T10:12:57;24.42;;;14.35;;
323;SDS011;149;51.094;17.002;2023-03-03T10:18:41;24.02;;;16.63;;
323;SDS011;149;51.094;17.002;2023-03-03T10:21:39;29.98;;;16.73;;
323;SDS011;149;51.094;17.002;2023-03-03T10:25:12;25.23;;;15.85;;
323;SDS011;149;51.094;17.002;2023-03-03T10:30:27;24.98;;;16.05;;
323;SDS011;149;51.094;17.002;2023-03-03T10:39:31;25.55;;;14.57;;
323;SDS011;149;51.094;17.002;2023-03-03T10:42:09;25.92;;;16.67;;
323;SDS011;149;51.094;17.002;2023-03-03T10:56:28;25.85;;;14.10;;
323;SDS011;149;51.094;17.002;2023-03-03T11:08:08;24.67;;;12.95;;
323;SDS011;149;51.094;17.002;2023-03-03T11:13:35;18.20;;;11.18;;
323;SDS011;149;51.094;17.002;2023-03-03T11:25:43;17.27;;;11.25;;
323;SDS011;149;51.094;17.002;2023-03-03T11:28:36;23.73;;;12.30;;
323;SDS011;149;51.094;17.002;2023-03-03T11:31:20;21.92;;;13.48;;
323;SDS011;149;51.094;17.002;2023-03-03T11:36:54;25.15;;;12.73;;
323;SDS011;149;51.094;17.002;2023-03-03T11:39:26;19.13;;;11.82;;
323;SDS011;149;51.094;17.002;2023-03-03T11:49:59;16.98;;;11.05;;
323;SDS011;149;51.094;17.002;2023-03-03T11:52:35;16.48;;;10.70;;
323;SDS011;149;51.094;17.002;2023-03-03T12:00:53;19.60;;;11.50;;
323;SDS011;149;51.094;17.002;2023-03-03T12:04:19;23.05;;;13.18;;
323;SDS011;149;51.094;17.002;2023-03-03T12:12:51;25.65;;;13.30;;
323;SDS011;149;51.094;17.002;2023-03-03T12:15:26;22.05;;;12.27;;
323;SDS011;149;51.094;17.002;2023-03-03T12:18:14;21.83;;;12.50;;
323;SDS011;149;51.094;17.002;2023-03-03T12:21:12;31.83;;;15.40;;
323;SDS011;149;51.094;17.002;2023-03-03T12:29:46;19.80;;;10.77;;
323;SDS011;149;51.094;17.002;2023-03-03T12:32:20;18.98;;;11.95;;
323;SDS011;149;51.094;17.002;2023-03-03T12:35:01;22.27;;;13.02;;
323;SDS011;149;51.094;17.002;2023-03-03T12:40:19;20.67;;;12.38;;
323;SDS011;149;51.094;17.002;2023-03-03T12:42:48;24.83;;;12.70;;
323;SDS011;149;51.094;17.002;2023-03-03T12:45:43;24.80;;;12.55;;
323;SDS011;149;51.094;17.002;2023-03-03T12:48:41;23.58;;;13.32;;
323;SDS011;149;51.094;17.002;2023-03-03T12:56:53;22.90;;;13.05;;
323;SDS011;149;51.094;17.002;2023-03-03T13:07:31;21.42;;;14.20;;
323;SDS011;149;51.094;17.002;2023-03-03T13:15:26;19.25;;;12.45;;
323;SDS011;149;51.094;17.002;2023-03-03T13:29:17;20.63;;;11.38;;
323;SDS011;149;51.094;17.002;2023-03-03T13:32:23;23.30;;;12.32;;
323;SDS011;149;51.094;17.002;2023-03-03T13:35:28;23.33;;;14.32;;
323;SDS011;149;51.094;17.002;2023-03-03T13:38:13;19.27;;;11.70;;
323;SDS011;149;51.094;17.002;2023-03-03T13:44:03;20.60;;;11.82;;
323;SDS011;149;51.094;17.002;2023-03-03T13:46:55;29.35;;;13.55;;
323;SDS011;149;51.094;17.002;2023-03-03T13:49:44;23.85;;;13.75;;
323;SDS011;149;51.094;17.002;2023-03-03T13:52:23;27.73;;;14.02;;
323;SDS011;149;51.094;17.002;2023-03-03T13:57:50;25.50;;;13.82;;
323;SDS011;149;51.094;17.002;2023-03-03T14:00:51;18.60;;;12.02;;
323;SDS011;149;51.094;17.002;2023-03-03T14:03:39;22.50;;;13.00;;
323;SDS011;149;51.094;17.002;2023-03-03T14:06:21;22.27;;;12.95;;
323;SDS011;149;51.094;17.002;2023-03-03T14:19:57;21.48;;;11.93;;
323;SDS011;149;51.094;17.002;2023-03-03T14:22:53;18.98;;;12.00;;
323;SDS011;149;51.094;17.002;2023-03-03T14:25:28;21.10;;;12.32;;
323;SDS011;149;51.094;17.002;2023-03-03T14:28:20;20.17;;;13.57;;
323;SDS011;149;51.094;17.002;2023-03-03T14:30:48;18.20;;;12.05;;
323;SDS011;149;51.094;17.002;2023-03-03T14:33:21;20.48;;;11.60;;
323;SDS011;149;51.094;17.002;2023-03-03T14:38:23;15.55;;;11.45;;
323;SDS011;149;51.094;17.002;2023-03-03T14:43:39;19.85;;;12.07;;
323;SDS011;149;51.094;17.002;2023-03-03T14:48:54;17.52;;;10.63;;
323;SDS011;149;51.094;17.002;2023-03-03T14:51:27;25.80;;;12.75;;
323;SDS011;149;51.094;17.002;2023-03-03T14:54:25;19.92;;;10.63;;
323;SDS011;149;51.094;17.002;2023-03-03T14:59:32;18.85;;;11.82;;
323;SDS011;149;51.094;17.002;2023-03-03T15:02:04;19.85;;;11.02;;
323;SDS011;149;51.094;17.002;2023-03-03T15:04:43;18.67;;;12.07;;
323;SDS011;149;51.094;17.002;2023-03-03T15:07:27;14.68;;;11.07;;
323;SDS011;149;51.094;17.002;2023-03-03T15:09:57;13.98;;;9.75;;
323;SDS011;149;51.094;17.002;2023-03-03T15:17:37;16.55;;;10.82;;
323;SDS011;149;51.094;17.002;2023-03-03T15:31:51;19.15;;;13.00;;
323;SDS011;149;51.094;17.002;2023-03-03T15:37:26;17.67;;;12.75;;
323;SDS011;149;51.094;17.002;2023-03-03T15:40:27;19.60;;;11.38;;
323;SDS011;149;51.094;17.002;2023-03-03T16:02:02;25.88;;;15.48;;
323;SDS011;149;51.094;17.002;2023-03-03T16:04:35;26.48;;;16.65;;
323;SDS011;149;51.094;17.002;2023-03-03T16:07:11;21.02;;;16.25;;
323;SDS011;149;51.094;17.002;2023-03-03T16:20:53;23.70;;;16.15;;
323;SDS011;149;51.094;17.002;2023-03-03T16:29:51;22.85;;;15.45;;
323;SDS011;149;51.094;17.002;2023-03-03T16:31:55;25.38;;;14.35;;
323;SDS011;149;51.094;17.002;2023-03-03T16:37:31;29.45;;;16.15;;
323;SDS011;149;51.094;17.002;2023-03-03T16:45:47;23.00;;;15.15;;
323;SDS011;149;51.094;17.002;2023-03-03T16:56:35;26.80;;;16.08;;
323;SDS011;149;51.094;17.002;2023-03-03T17:02:31;22.95;;;16.35;;
323;SDS011;149;51.094;17.002;2023-03-03T17:05:24;22.27;;;14.38;;
323;SDS011;149;51.094;17.002;2023-03-03T17:16:40;22.85;;;13.85;;
323;SDS011;149;51.094;17.002;2023-03-03T17:19:48;18.58;;;12.70;;
323;SDS011;149;51.094;17.002;2023-03-03T17:22:44;20.65;;;13.35;;
323;SDS011;149;51.094;17.002;2023-03-03T17:25:34;18.77;;;12.95;;
323;SDS011;149;51.094;17.002;2023-03-03T17:34:04;20.75;;;13.40;;
323;SDS011;149;51.094;17.002;2023-03-03T17:42:08;25.40;;;15.98;;
323;SDS011;149;51.094;17.002;2023-03-03T17:47:09;22.13;;;14.45;;
323;SDS011;149;51.094;17.002;2023-03-03T17:49:44;19.30;;;13.38;;
323;SDS011;149;51.094;17.002;2023-03-03T17:57:48;23.05;;;14.02;;
323;SDS011;149;51.094;17.002;2023-03-03T18:12:17;18.00;;;12.77;;
323;SDS011;149;51.094;17.002;2023-03-03T18:25:56;26.85;;;15.35;;
323;SDS011;149;51.094;17.002;2023-03-03T18:28:46;22.00;;;14.40;;
323;SDS011;149;51.094;17.002;2023-03-03T18:31:22;29.15;;;19.05;;
323;SDS011;149;51.094;17.002;2023-03-03T18:36:35;26.38;;;15.48;;
323;SDS011;149;51.094;17.002;2023-03-03T18:39:05;28.15;;;18.50;;
323;SDS011;149;51.094;17.002;2023-03-03T18:44:37;27.67;;;15.88;;
323;SDS011;149;51.094;17.002;2023-03-03T18:47:04;30.98;;;17.63;;
323;SDS011;149;51.094;17.002;2023-03-03T18:50:12;33.20;;;16.80;;
323;SDS011;149;51.094;17.002;2023-03-03T18:55:47;34.97;;;16.40;;
323;SDS011;149;51.094;17.002;2023-03-03T19:00:46;33.30;;;19.38;;
323;SDS011;149;51.094;17.002;2023-03-03T19:03:28;36.80;;;20.02;;
323;SDS011;149;51.094;17.002;2023-03-03T19:05:57;35.45;;;19.75;;
323;SDS011;149;51.094;17.002;2023-03-03T19:16:54;38.60;;;24.55;;
323;SDS011;149;51.094;17.002;2023-03-03T19:19:23;42.38;;;23.85;;
323;SDS011;149;51.094;17.002;2023-03-03T19:22:16;38.17;;;19.98;;
323;SDS011;149;51.094;17.002;2023-03-03T19:25:01;45.30;;;23.70;;
323;SDS011;149;51.094;17.002;2023-03-03T19:27:34;44.63;;;25.17;;
323;SDS011;149;51.094;17.002;2023-03-03T19:30:52;49.45;;;24.05;;
323;SDS011;149;51.094;17.002;2023-03-03T19:38:40;42.17;;;27.10;;
323;SDS011;149;51.094;17.002;2023-03-03T19:44:11;49.17;;;27.20;;
323;SDS011;149;51.094;17.002;2023-03-03T19:52:18;48.70;;;28.95;;
323;SDS011;149;51.094;17.002;2023-03-03T19:57:46;50.63;;;27.80;;
323;SDS011;149;51.094;17.002;2023-03-03T20:00:33;49.13;;;31.58;;
323;SDS011;149;51.094;17.002;2023-03-03T20:03:23;60.17;;;29.63;;
323;SDS011;149;51.094;17.002;2023-03-03T20:09:15;50.55;;;29.50;;
323;SDS011;149;51.094;17.002;2023-03-03T20:14:40;62.00;;;29.10;;
323;SDS011;149;51.094;17.002;2023-03-03T20:17:16;55.50;;;27.15;;
323;SDS011;149;51.094;17.002;2023-03-03T20:26:02;52.30;;;29.17;;
323;SDS011;149;51.094;17.002;2023-03-03T20:28:55;51.53;;;25.50;;
323;SDS011;149;51.094;17.002;2023-03-03T20:51:24;45.63;;;25.08;;
323;SDS011;149;51.094;17.002;2023-03-03T20:54:16;49.50;;;27.45;;
323;SDS011;149;51.094;17.002;2023-03-03T20:57:00;46.10;;;26.90;;
323;SDS011;149;51.094;17.002;2023-03-03T20:59:54;47.67;;;27.58;;
323;SDS011;149;51.094;17.002;2023-03-03T21:02:28;49.08;;;28.95;;
323;SDS011;149;51.094;17.002;2023-03-03T21:05:13;51.03;;;28.25;;
323;SDS011;149;51.094;17.002;2023-03-03T21:07:49;47.72;;;26.98;;
323;SDS011;149;51.094;17.002;2023-03-03T21:10:17;45.25;;;24.77;;
323;SDS011;149;51.094;17.002;2023-03-03T21:12:51;51.05;;;27.70;;
323;SDS011;149;51.094;17.002;2023-03-03T21:15:26;48.90;;;27.40;;
323;SDS011;149;51.094;17.002;2023-03-03T21:17:59;49.30;;;26.77;;
323;SDS011;149;51.094;17.002;2023-03-03T21:20:43;48.22;;;25.50;;
323;SDS011;149;51.094;17.002;2023-03-03T21:23:10;49.85;;;26.30;;
323;SDS011;149;51.094;17.002;2023-03-03T21:33:47;62.25;;;30.67;;
323;SDS011;149;51.094;17.002;2023-03-03T21:36:22;62.03;;;31.65;;
323;SDS011;149;51.094;17.002;2023-03-03T21:42:27;58.88;;;31.05;;
323;SDS011;149;51.094;17.002;2023-03-03T21:45:12;50.20;;;29.98;;
323;SDS011;149;51.094;17.002;2023-03-03T21:47:40;50.20;;;28.02;;
323;SDS011;149;51.094;17.002;2023-03-03T21:50:07;52.58;;;27.98;;
323;SDS011;149;51.094;17.002;2023-03-03T21:52:37;51.00;;;27.98;;
323;SDS011;149;51.094;17.002;2023-03-03T21:55:04;64.40;;;33.78;;
323;SDS011;149;51.094;17.002;2023-03-03T21:57:31;50.05;;;27.15;;
323;SDS011;149;51.094;17.002;2023-03-03T22:00:00;54.65;;;29.00;;
323;SDS011;149;51.094;17.002;2023-03-03T22:02:28;58.55;;;29.85;;
323;SDS011;149;51.094;17.002;2023-03-03T22:04:55;49.15;;;27.52;;
323;SDS011;149;51.094;17.002;2023-03-03T22:07:22;47.15;;;28.65;;
323;SDS011;149;51.094;17.002;2023-03-03T22:09:49;57.85;;;30.40;;
323;SDS011;149;51.094;17.002;2023-03-03T22:12:16;58.92;;;29.83;;
323;SDS011;149;51.094;17.002;2023-03-03T22:14:43;56.17;;;29.35;;
323;SDS011;149;51.094;17.002;2023-03-03T22:17:10;51.45;;;30.10;;
323;SDS011;149;51.094;17.002;2023-03-03T22:19:37;55.78;;;29.35;;